UAL9985 KLAX-KSFO
Flight info
| Callsign | UAL9985 |
|---|---|
| Flight time | 0h 52m |
| Altitude | 36000 |
| Route | SUMMR2 STOKD SERFR SERFR4 |
| Aircraft | B789/H-SDE1E2E3FGHIJ2J3J4J5M1RWXY/LB1D1 |
Departure
| Time | 2026-05-06 22:45 |
|---|---|
| Airport | Los Angeles International Airport (KLAX) |
Arrival
| Time | 2026-05-06 23:38 |
|---|---|
| Airport | San Francisco International Airport (KSFO) |
| Time | Latitude | Longitude | Altitude | Speed | Heading |
|---|---|---|---|---|---|
| 2026-05-06 22:27 | 33.94234 | -118.39138 | 101 ft | 0 kts | 353° |
| 2026-05-06 22:36 | 33.94231 | -118.39137 | 101 ft | 2 kts | 353° |
| 2026-05-06 22:37 | 33.94214 | -118.39135 | 100 ft | 3 kts | 360° |
| 2026-05-06 22:37 | 33.94199 | -118.39137 | 100 ft | 3 kts | 57° |
| 2026-05-06 22:37 | 33.94195 | -118.39150 | 101 ft | 1 kts | 83° |
| 2026-05-06 22:37 | 33.94193 | -118.39170 | 100 ft | 3 kts | 83° |
| 2026-05-06 22:38 | 33.94191 | -118.39184 | 99 ft | 0 kts | 83° |
| 2026-05-06 22:40 | 33.94194 | -118.39159 | 101 ft | 5 kts | 82° |
| 2026-05-06 22:40 | 33.94194 | -118.39114 | 103 ft | 6 kts | 106° |
| 2026-05-06 22:40 | 33.94169 | -118.39086 | 102 ft | 5 kts | 155° |
| 2026-05-06 22:41 | 33.94069 | -118.39047 | 102 ft | 11 kts | 152° |
| 2026-05-06 22:41 | 33.94003 | -118.38990 | 107 ft | 12 kts | 125° |
| 2026-05-06 22:41 | 33.93992 | -118.38888 | 107 ft | 14 kts | 87° |
| 2026-05-06 22:42 | 33.94006 | -118.38750 | 108 ft | 19 kts | 83° |
| 2026-05-06 22:42 | 33.94023 | -118.38586 | 109 ft | 21 kts | 83° |
| 2026-05-06 22:42 | 33.94041 | -118.38402 | 109 ft | 23 kts | 82° |
| 2026-05-06 22:42 | 33.94062 | -118.38203 | 109 ft | 24 kts | 82° |
| 2026-05-06 22:43 | 33.94073 | -118.38043 | 109 ft | 10 kts | 103° |
| 2026-05-06 22:43 | 33.94058 | -118.38018 | 108 ft | 6 kts | 141° |
| 2026-05-06 22:43 | 33.94017 | -118.38003 | 112 ft | 3 kts | 189° |
| 2026-05-06 22:43 | 33.93992 | -118.38033 | 112 ft | 6 kts | 240° |
| 2026-05-06 22:44 | 33.93982 | -118.38076 | 112 ft | 0 kts | 261° |
| 2026-05-06 22:45 | 33.93954 | -118.38340 | 111 ft | 77 kts | 263° |
| 2026-05-06 22:45 | 33.93847 | -118.39391 | 190 ft | 167 kts | 264° |
| 2026-05-06 22:45 | 33.93707 | -118.40906 | 1091 ft | 192 kts | 263° |
| 2026-05-06 22:45 | 33.93547 | -118.42511 | 2350 ft | 203 kts | 261° |
| 2026-05-06 22:46 | 33.93248 | -118.45073 | 2934 ft | 250 kts | 263° |
| 2026-05-06 22:46 | 33.93147 | -118.46562 | 3204 ft | 272 kts | 269° |
| 2026-05-06 22:46 | 33.93034 | -118.48832 | 4445 ft | 276 kts | 264° |
| 2026-05-06 22:46 | 33.92766 | -118.51093 | 5361 ft | 266 kts | 263° |
| 2026-05-06 22:47 | 33.92543 | -118.53301 | 6919 ft | 268 kts | 266° |
| 2026-05-06 22:47 | 33.92370 | -118.55551 | 8215 ft | 278 kts | 267° |
| 2026-05-06 22:47 | 33.92192 | -118.57904 | 9583 ft | 286 kts | 267° |
| 2026-05-06 22:47 | 33.91990 | -118.60338 | 10661 ft | 303 kts | 267° |
| 2026-05-06 22:48 | 33.91786 | -118.62980 | 11332 ft | 330 kts | 270° |
| 2026-05-06 22:48 | 33.91826 | -118.65848 | 11900 ft | 354 kts | 272° |
| 2026-05-06 22:48 | 33.91784 | -118.68820 | 11992 ft | 354 kts | 270° |
| 2026-05-06 22:48 | 33.91728 | -118.71768 | 11990 ft | 352 kts | 271° |
| 2026-05-06 22:49 | 33.91722 | -118.74715 | 12009 ft | 353 kts | 272° |
| 2026-05-06 22:49 | 33.91727 | -118.77672 | 13246 ft | 349 kts | 272° |
| 2026-05-06 22:49 | 33.91715 | -118.80613 | 14517 ft | 355 kts | 271° |
| 2026-05-06 22:49 | 33.91711 | -118.83613 | 15604 ft | 361 kts | 275° |
| 2026-05-06 22:50 | 33.91859 | -118.86653 | 16621 ft | 368 kts | 274° |
| 2026-05-06 22:50 | 33.91901 | -118.89755 | 17709 ft | 373 kts | 273° |
| 2026-05-06 22:50 | 33.91960 | -118.92905 | 18710 ft | 379 kts | 274° |
| 2026-05-06 22:50 | 33.92070 | -118.96093 | 19606 ft | 384 kts | 275° |
| 2026-05-06 22:51 | 33.92200 | -118.99320 | 20463 ft | 388 kts | 278° |
| 2026-05-06 22:51 | 33.92846 | -119.02460 | 21278 ft | 388 kts | 295° |
| 2026-05-06 22:51 | 33.94125 | -119.05315 | 22100 ft | 389 kts | 303° |
| 2026-05-06 22:51 | 33.95549 | -119.08109 | 22915 ft | 393 kts | 304° |
| 2026-05-06 22:52 | 33.97016 | -119.10913 | 23688 ft | 398 kts | 305° |
| 2026-05-06 22:52 | 33.98494 | -119.13755 | 24341 ft | 402 kts | 304° |
| 2026-05-06 22:52 | 33.99985 | -119.16627 | 24941 ft | 405 kts | 307° |
| 2026-05-06 22:52 | 34.01834 | -119.19178 | 25500 ft | 405 kts | 320° |
| 2026-05-06 22:53 | 34.04063 | -119.21265 | 26053 ft | 407 kts | 326° |
| 2026-05-06 22:53 | 34.06379 | -119.23272 | 26650 ft | 411 kts | 327° |
| 2026-05-06 22:53 | 34.08720 | -119.25273 | 27221 ft | 415 kts | 327° |
| 2026-05-06 22:53 | 34.11086 | -119.27297 | 27765 ft | 419 kts | 327° |
| 2026-05-06 22:54 | 34.13467 | -119.29349 | 28305 ft | 423 kts | 327° |
| 2026-05-06 22:54 | 34.15852 | -119.31410 | 29083 ft | 421 kts | 327° |
| 2026-05-06 22:54 | 34.18233 | -119.33462 | 29878 ft | 419 kts | 327° |
| 2026-05-06 22:54 | 34.20605 | -119.35504 | 30528 ft | 418 kts | 327° |
| 2026-05-06 22:55 | 34.22969 | -119.37544 | 31175 ft | 417 kts | 327° |
| 2026-05-06 22:55 | 34.25292 | -119.39552 | 31824 ft | 415 kts | 327° |
| 2026-05-06 22:55 | 34.27632 | -119.41574 | 32478 ft | 413 kts | 327° |
| 2026-05-06 22:55 | 34.29964 | -119.43590 | 33130 ft | 411 kts | 327° |
| 2026-05-06 22:56 | 34.32289 | -119.45602 | 33775 ft | 410 kts | 327° |
| 2026-05-06 22:56 | 34.34599 | -119.47603 | 34370 ft | 408 kts | 327° |
| 2026-05-06 22:56 | 34.36908 | -119.49604 | 34880 ft | 408 kts | 327° |
| 2026-05-06 22:56 | 34.39215 | -119.51605 | 35364 ft | 408 kts | 326° |
| 2026-05-06 22:57 | 34.41459 | -119.53702 | 35814 ft | 409 kts | 318° |
| 2026-05-06 22:57 | 34.43480 | -119.56160 | 36113 ft | 415 kts | 317° |
| 2026-05-06 22:57 | 34.45526 | -119.58666 | 36097 ft | 419 kts | 317° |
| 2026-05-06 22:58 | 34.49587 | -119.63667 | 36103 ft | 414 kts | 317° |
| 2026-05-06 22:58 | 34.53629 | -119.68641 | 36109 ft | 414 kts | 317° |
| 2026-05-06 22:59 | 34.57678 | -119.73636 | 36100 ft | 415 kts | 317° |
| 2026-05-06 22:59 | 34.61726 | -119.78634 | 36089 ft | 416 kts | 317° |
| 2026-05-06 23:00 | 34.65766 | -119.83631 | 36085 ft | 417 kts | 317° |
| 2026-05-06 23:00 | 34.69824 | -119.88659 | 36092 ft | 416 kts | 317° |
| 2026-05-06 23:01 | 34.73879 | -119.93690 | 36088 ft | 417 kts | 318° |
| 2026-05-06 23:01 | 34.77936 | -119.98730 | 36091 ft | 417 kts | 318° |
| 2026-05-06 23:02 | 34.82024 | -120.03813 | 36095 ft | 428 kts | 318° |
| 2026-05-06 23:02 | 34.84135 | -120.06440 | 36108 ft | 440 kts | 318° |
| 2026-05-06 23:02 | 34.86299 | -120.09139 | 36100 ft | 451 kts | 318° |
| 2026-05-06 23:03 | 34.90770 | -120.14723 | 36121 ft | 469 kts | 318° |
| 2026-05-06 23:03 | 34.95399 | -120.20511 | 36121 ft | 480 kts | 318° |
| 2026-05-06 23:04 | 35.00034 | -120.26319 | 36122 ft | 481 kts | 318° |
| 2026-05-06 23:04 | 35.04707 | -120.32180 | 36121 ft | 482 kts | 318° |
| 2026-05-06 23:05 | 35.09404 | -120.38003 | 36127 ft | 479 kts | 322° |
| 2026-05-06 23:05 | 35.14332 | -120.43502 | 36105 ft | 480 kts | 322° |
| 2026-05-06 23:06 | 35.19256 | -120.49027 | 36097 ft | 481 kts | 322° |
| 2026-05-06 23:06 | 35.24187 | -120.54559 | 36096 ft | 481 kts | 322° |
| 2026-05-06 23:07 | 35.29116 | -120.60104 | 36094 ft | 481 kts | 322° |
| 2026-05-06 23:07 | 35.34037 | -120.65646 | 36093 ft | 480 kts | 322° |
| 2026-05-06 23:08 | 35.38956 | -120.71194 | 36095 ft | 482 kts | 322° |
| 2026-05-06 23:08 | 35.43882 | -120.76767 | 36101 ft | 481 kts | 322° |
| 2026-05-06 23:09 | 35.48836 | -120.82273 | 36110 ft | 476 kts | 328° |
| 2026-05-06 23:09 | 35.54097 | -120.87143 | 36114 ft | 477 kts | 328° |
| 2026-05-06 23:10 | 35.59385 | -120.92060 | 36107 ft | 476 kts | 328° |
| 2026-05-06 23:10 | 35.64689 | -120.96984 | 36115 ft | 477 kts | 328° |
| 2026-05-06 23:11 | 35.69982 | -121.01917 | 36109 ft | 477 kts | 328° |
| 2026-05-06 23:11 | 35.75282 | -121.06858 | 36109 ft | 478 kts | 328° |
| 2026-05-06 23:12 | 35.80579 | -121.11808 | 36103 ft | 477 kts | 328° |
| 2026-05-06 23:12 | 35.85834 | -121.16728 | 36109 ft | 478 kts | 328° |
| 2026-05-06 23:13 | 35.91127 | -121.21690 | 36108 ft | 478 kts | 328° |
| 2026-05-06 23:13 | 35.96323 | -121.26582 | 36106 ft | 451 kts | 328° |
| 2026-05-06 23:13 | 35.98764 | -121.28882 | 36103 ft | 432 kts | 329° |
| 2026-05-06 23:14 | 36.01110 | -121.31084 | 36047 ft | 416 kts | 329° |
| 2026-05-06 23:14 | 36.03389 | -121.33224 | 35647 ft | 408 kts | 329° |
| 2026-05-06 23:14 | 36.05643 | -121.35343 | 35130 ft | 406 kts | 329° |
| 2026-05-06 23:14 | 36.07936 | -121.37329 | 34604 ft | 398 kts | 336° |
| 2026-05-06 23:15 | 36.10291 | -121.39144 | 34062 ft | 399 kts | 335° |
| 2026-05-06 23:15 | 36.12638 | -121.40987 | 33460 ft | 399 kts | 335° |
| 2026-05-06 23:15 | 36.14992 | -121.42830 | 32918 ft | 403 kts | 335° |
| 2026-05-06 23:15 | 36.17383 | -121.44686 | 32329 ft | 408 kts | 335° |
| 2026-05-06 23:16 | 36.19789 | -121.46565 | 31722 ft | 407 kts | 335° |
| 2026-05-06 23:16 | 36.22182 | -121.48442 | 31123 ft | 406 kts | 335° |
| 2026-05-06 23:16 | 36.24557 | -121.50302 | 30543 ft | 402 kts | 335° |
| 2026-05-06 23:16 | 36.26909 | -121.52141 | 29912 ft | 398 kts | 335° |
| 2026-05-06 23:17 | 36.29232 | -121.53961 | 29342 ft | 391 kts | 335° |
| 2026-05-06 23:17 | 36.31519 | -121.55754 | 28756 ft | 386 kts | 334° |
| 2026-05-06 23:17 | 36.33773 | -121.57522 | 28239 ft | 381 kts | 334° |
| 2026-05-06 23:17 | 36.35998 | -121.59267 | 27675 ft | 376 kts | 334° |
| 2026-05-06 23:18 | 36.38166 | -121.60970 | 27160 ft | 371 kts | 334° |
| 2026-05-06 23:18 | 36.40340 | -121.62679 | 26612 ft | 368 kts | 333° |
| 2026-05-06 23:18 | 36.42498 | -121.64375 | 26114 ft | 366 kts | 333° |
| 2026-05-06 23:18 | 36.44647 | -121.66065 | 25582 ft | 365 kts | 333° |
| 2026-05-06 23:19 | 36.46782 | -121.67748 | 25063 ft | 361 kts | 332° |
| 2026-05-06 23:19 | 36.48883 | -121.69406 | 24541 ft | 356 kts | 332° |
| 2026-05-06 23:19 | 36.50963 | -121.71045 | 24018 ft | 353 kts | 332° |
| 2026-05-06 23:19 | 36.53025 | -121.72674 | 23508 ft | 350 kts | 331° |
| 2026-05-06 23:20 | 36.55068 | -121.74290 | 23032 ft | 346 kts | 331° |
| 2026-05-06 23:20 | 36.57102 | -121.75898 | 22572 ft | 346 kts | 331° |
| 2026-05-06 23:20 | 36.59138 | -121.77508 | 22116 ft | 345 kts | 331° |
| 2026-05-06 23:20 | 36.61162 | -121.79111 | 21666 ft | 344 kts | 331° |
| 2026-05-06 23:21 | 36.63179 | -121.80710 | 21210 ft | 342 kts | 331° |
| 2026-05-06 23:21 | 36.65156 | -121.82277 | 20751 ft | 340 kts | 331° |
| 2026-05-06 23:21 | 36.67142 | -121.83852 | 20296 ft | 337 kts | 331° |
| 2026-05-06 23:21 | 36.69118 | -121.85421 | 19864 ft | 335 kts | 331° |
| 2026-05-06 23:22 | 36.71077 | -121.86977 | 19420 ft | 333 kts | 331° |
| 2026-05-06 23:22 | 36.73024 | -121.88523 | 18981 ft | 330 kts | 332° |
| 2026-05-06 23:22 | 36.75087 | -121.89667 | 18560 ft | 322 kts | 348° |
| 2026-05-06 23:22 | 36.77260 | -121.90311 | 18102 ft | 320 kts | 349° |
| 2026-05-06 23:23 | 36.79428 | -121.90903 | 17671 ft | 318 kts | 350° |
| 2026-05-06 23:23 | 36.81585 | -121.91488 | 17148 ft | 316 kts | 350° |
| 2026-05-06 23:23 | 36.83725 | -121.92087 | 16726 ft | 314 kts | 349° |
| 2026-05-06 23:23 | 36.85849 | -121.92686 | 16317 ft | 312 kts | 349° |
| 2026-05-06 23:24 | 36.87938 | -121.93270 | 15904 ft | 311 kts | 349° |
| 2026-05-06 23:24 | 36.90043 | -121.93857 | 15488 ft | 310 kts | 349° |
| 2026-05-06 23:24 | 36.92144 | -121.94444 | 15079 ft | 308 kts | 349° |
| 2026-05-06 23:24 | 36.94236 | -121.95030 | 14679 ft | 307 kts | 349° |
| 2026-05-06 23:25 | 36.96291 | -121.95757 | 14285 ft | 306 kts | 343° |
| 2026-05-06 23:25 | 36.98327 | -121.96557 | 13855 ft | 306 kts | 346° |
| 2026-05-06 23:25 | 37.00358 | -121.97317 | 13435 ft | 304 kts | 345° |
| 2026-05-06 23:25 | 37.02372 | -121.98097 | 13037 ft | 301 kts | 345° |
| 2026-05-06 23:26 | 37.04369 | -121.98885 | 12635 ft | 300 kts | 345° |
| 2026-05-06 23:26 | 37.06358 | -121.99664 | 12243 ft | 299 kts | 345° |
| 2026-05-06 23:26 | 37.08311 | -122.00424 | 11831 ft | 297 kts | 345° |
| 2026-05-06 23:26 | 37.10304 | -122.01201 | 11429 ft | 296 kts | 345° |
| 2026-05-06 23:27 | 37.12233 | -122.01956 | 11033 ft | 293 kts | 345° |
| 2026-05-06 23:27 | 37.14167 | -122.02713 | 10639 ft | 287 kts | 344° |
| 2026-05-06 23:27 | 37.16036 | -122.03445 | 10265 ft | 276 kts | 345° |
| 2026-05-06 23:27 | 37.17834 | -122.04148 | 9891 ft | 266 kts | 345° |
| 2026-05-06 23:28 | 37.19561 | -122.04824 | 9534 ft | 255 kts | 345° |
| 2026-05-06 23:28 | 37.21257 | -122.05487 | 9198 ft | 258 kts | 344° |
| 2026-05-06 23:28 | 37.22980 | -122.06162 | 8843 ft | 259 kts | 344° |
| 2026-05-06 23:28 | 37.24701 | -122.06838 | 8522 ft | 260 kts | 344° |
| 2026-05-06 23:29 | 37.26422 | -122.07513 | 8177 ft | 259 kts | 344° |
| 2026-05-06 23:29 | 37.28147 | -122.08191 | 7833 ft | 260 kts | 344° |
| 2026-05-06 23:29 | 37.29864 | -122.08867 | 7492 ft | 258 kts | 343° |
| 2026-05-06 23:29 | 37.31576 | -122.09542 | 7152 ft | 258 kts | 343° |
| 2026-05-06 23:30 | 37.33285 | -122.10216 | 6812 ft | 256 kts | 343° |
| 2026-05-06 23:30 | 37.34979 | -122.10883 | 6469 ft | 255 kts | 343° |
| 2026-05-06 23:30 | 37.36667 | -122.11550 | 6121 ft | 254 kts | 343° |
| 2026-05-06 23:30 | 37.38353 | -122.12121 | 5884 ft | 243 kts | 348° |
| 2026-05-06 23:31 | 37.39929 | -122.12654 | 5623 ft | 233 kts | 343° |
| 2026-05-06 23:31 | 37.41460 | -122.13234 | 5320 ft | 226 kts | 344° |
| 2026-05-06 23:31 | 37.42953 | -122.13757 | 5037 ft | 220 kts | 345° |
| 2026-05-06 23:31 | 37.44411 | -122.14249 | 4754 ft | 215 kts | 345° |
| 2026-05-06 23:32 | 37.45822 | -122.14729 | 4526 ft | 204 kts | 345° |
| 2026-05-06 23:32 | 37.47146 | -122.15185 | 4267 ft | 192 kts | 345° |
| 2026-05-06 23:32 | 37.48422 | -122.15624 | 4026 ft | 188 kts | 344° |
| 2026-05-06 23:32 | 37.49251 | -122.15909 | 3870 ft | 187 kts | 344° |
| 2026-05-06 23:33 | 37.50506 | -122.16340 | 3632 ft | 187 kts | 343° |
| 2026-05-06 23:33 | 37.52169 | -122.16913 | 3309 ft | 187 kts | 343° |
| 2026-05-06 23:33 | 37.52994 | -122.17257 | 3170 ft | 182 kts | 334° |
| 2026-05-06 23:33 | 37.53812 | -122.18421 | 2973 ft | 180 kts | 297° |
| 2026-05-06 23:34 | 37.54425 | -122.19806 | 2781 ft | 181 kts | 299° |
| 2026-05-06 23:34 | 37.55030 | -122.21180 | 2550 ft | 177 kts | 297° |
| 2026-05-06 23:34 | 37.55612 | -122.22561 | 2313 ft | 178 kts | 297° |
| 2026-05-06 23:34 | 37.56177 | -122.23903 | 2107 ft | 176 kts | 296° |
| 2026-05-06 23:35 | 37.56744 | -122.25263 | 1886 ft | 173 kts | 296° |
| 2026-05-06 23:35 | 37.57298 | -122.26583 | 1659 ft | 172 kts | 296° |
| 2026-05-06 23:35 | 37.57843 | -122.27881 | 1421 ft | 154 kts | 296° |
| 2026-05-06 23:35 | 37.58299 | -122.28983 | 1225 ft | 134 kts | 295° |
| 2026-05-06 23:36 | 37.58728 | -122.30018 | 1064 ft | 131 kts | 296° |
| 2026-05-06 23:36 | 37.59138 | -122.30997 | 876 ft | 123 kts | 297° |
| 2026-05-06 23:36 | 37.59541 | -122.31949 | 712 ft | 123 kts | 296° |
| 2026-05-06 23:36 | 37.59932 | -122.32873 | 566 ft | 115 kts | 295° |
| 2026-05-06 23:37 | 37.60302 | -122.33758 | 406 ft | 114 kts | 295° |
| 2026-05-06 23:37 | 37.60672 | -122.34637 | 297 ft | 115 kts | 294° |
| 2026-05-06 23:37 | 37.61045 | -122.35523 | 155 ft | 115 kts | 293° |
| 2026-05-06 23:37 | 37.61424 | -122.36426 | 43 ft | 114 kts | 293° |
| 2026-05-06 23:38 | 37.61737 | -122.37195 | 28 ft | 79 kts | 299° |
| 2026-05-06 23:38 | 37.61891 | -122.37579 | 28 ft | 28 kts | 292° |
| 2026-05-06 23:38 | 37.61975 | -122.37784 | 28 ft | 24 kts | 293° |
| 2026-05-06 23:38 | 37.61964 | -122.37964 | 28 ft | 19 kts | 265° |
| 2026-05-06 23:39 | 37.61998 | -122.38103 | 28 ft | 16 kts | 296° |
| 2026-05-06 23:39 | 37.62048 | -122.38224 | 28 ft | 15 kts | 298° |
| 2026-05-06 23:39 | 37.62098 | -122.38342 | 28 ft | 16 kts | 297° |
| 2026-05-06 23:39 | 37.62151 | -122.38466 | 28 ft | 17 kts | 298° |
| 2026-05-06 23:40 | 37.62206 | -122.38599 | 28 ft | 18 kts | 297° |
| 2026-05-06 23:40 | 37.62263 | -122.38739 | 28 ft | 18 kts | 298° |
| 2026-05-06 23:40 | 37.62325 | -122.38884 | 28 ft | 19 kts | 295° |
| 2026-05-06 23:40 | 37.62323 | -122.38956 | 28 ft | 5 kts | 231° |
| 2026-05-06 23:41 | 37.62275 | -122.39002 | 28 ft | 9 kts | 212° |
| 2026-05-06 23:41 | 37.62238 | -122.39069 | 28 ft | 10 kts | 248° |
| 2026-05-06 23:41 | 37.62192 | -122.39134 | 28 ft | 10 kts | 207° |
| 2026-05-06 23:41 | 37.62122 | -122.39179 | 28 ft | 13 kts | 207° |
| 2026-05-06 23:42 | 37.62046 | -122.39202 | 28 ft | 11 kts | 184° |
| 2026-05-06 23:42 | 37.61964 | -122.39213 | 28 ft | 7 kts | 194° |
| 2026-05-06 23:42 | 37.61919 | -122.39238 | 26 ft | 4 kts | 206° |
| 2026-05-06 23:42 | 37.61900 | -122.39250 | 28 ft | 1 kts | 206° |
| 2026-05-06 23:43 | 37.61892 | -122.39255 | 28 ft | 0 kts | 206° |